sensor_id;sensor_type;location;lat;lon;timestamp;P1;durP1;ratioP1;P2;durP2;ratioP2
28298;SDS011;15565;52.600;6.456;2022-08-21T00:00:32;3.80;;;1.63;;
28298;SDS011;15565;52.600;6.456;2022-08-21T00:03:19;1.40;;;1.30;;
28298;SDS011;15565;52.600;6.456;2022-08-21T00:06:06;5.20;;;1.83;;
28298;SDS011;15565;52.600;6.456;2022-08-21T00:08:57;2.53;;;1.97;;
28298;SDS011;15565;52.600;6.456;2022-08-21T00:11:50;8.73;;;2.57;;
28298;SDS011;15565;52.600;6.456;2022-08-21T00:14:37;5.88;;;2.15;;
28298;SDS011;15565;52.600;6.456;2022-08-21T00:17:25;3.83;;;2.15;;
28298;SDS011;15565;52.600;6.456;2022-08-21T00:20:12;5.88;;;1.83;;
28298;SDS011;15565;52.600;6.456;2022-08-21T00:22:59;2.40;;;1.77;;
28298;SDS011;15565;52.600;6.456;2022-08-21T00:25:46;5.90;;;2.10;;
28298;SDS011;15565;52.600;6.456;2022-08-21T00:28:33;2.83;;;1.60;;
28298;SDS011;15565;52.600;6.456;2022-08-21T00:31:19;4.88;;;1.98;;
28298;SDS011;15565;52.600;6.456;2022-08-21T00:34:08;5.78;;;2.15;;
28298;SDS011;15565;52.600;6.456;2022-08-21T00:36:55;4.80;;;2.25;;
28298;SDS011;15565;52.600;6.456;2022-08-21T00:39:42;5.53;;;1.88;;
28298;SDS011;15565;52.600;6.456;2022-08-21T00:42:29;4.50;;;2.05;;
28298;SDS011;15565;52.600;6.456;2022-08-21T00:45:16;3.65;;;2.00;;
28298;SDS011;15565;52.600;6.456;2022-08-21T00:48:03;3.33;;;1.73;;
28298;SDS011;15565;52.600;6.456;2022-08-21T00:50:54;3.25;;;2.30;;
28298;SDS011;15565;52.600;6.456;2022-08-21T00:53:42;2.50;;;2.13;;
28298;SDS011;15565;52.600;6.456;2022-08-21T00:56:37;3.75;;;2.03;;
28298;SDS011;15565;52.600;6.456;2022-08-21T00:59:27;4.10;;;1.90;;
28298;SDS011;15565;52.600;6.456;2022-08-21T01:02:16;3.35;;;1.48;;
28298;SDS011;15565;52.600;6.456;2022-08-21T01:05:03;1.90;;;1.60;;
28298;SDS011;15565;52.600;6.456;2022-08-21T01:07:51;2.67;;;1.90;;
28298;SDS011;15565;52.600;6.456;2022-08-21T01:10:38;3.72;;;2.03;;
28298;SDS011;15565;52.600;6.456;2022-08-21T01:13:26;3.42;;;1.90;;
28298;SDS011;15565;52.600;6.456;2022-08-21T01:16:15;3.53;;;1.60;;
28298;SDS011;15565;52.600;6.456;2022-08-21T01:19:02;5.75;;;1.88;;
28298;SDS011;15565;52.600;6.456;2022-08-21T01:21:51;3.65;;;2.17;;
28298;SDS011;15565;52.600;6.456;2022-08-21T01:24:38;2.07;;;1.20;;
28298;SDS011;15565;52.600;6.456;2022-08-21T01:27:25;3.23;;;1.70;;
28298;SDS011;15565;52.600;6.456;2022-08-21T01:30:13;5.35;;;1.63;;
28298;SDS011;15565;52.600;6.456;2022-08-21T01:33:00;4.80;;;2.17;;
28298;SDS011;15565;52.600;6.456;2022-08-21T01:35:47;6.57;;;2.23;;
28298;SDS011;15565;52.600;6.456;2022-08-21T01:38:35;5.32;;;2.25;;
28298;SDS011;15565;52.600;6.456;2022-08-21T01:41:23;4.93;;;2.13;;
28298;SDS011;15565;52.600;6.456;2022-08-21T01:44:10;2.88;;;1.70;;
28298;SDS011;15565;52.600;6.456;2022-08-21T01:46:57;2.80;;;1.47;;
28298;SDS011;15565;52.600;6.456;2022-08-21T01:49:44;5.27;;;2.33;;
28298;SDS011;15565;52.600;6.456;2022-08-21T01:52:32;2.30;;;1.60;;
28298;SDS011;15565;52.600;6.456;2022-08-21T01:55:20;2.50;;;2.13;;
28298;SDS011;15565;52.600;6.456;2022-08-21T01:58:08;3.92;;;2.10;;
28298;SDS011;15565;52.600;6.456;2022-08-21T02:00:55;4.45;;;2.65;;
28298;SDS011;15565;52.600;6.456;2022-08-21T02:03:42;6.30;;;2.40;;
28298;SDS011;15565;52.600;6.456;2022-08-21T02:06:28;2.72;;;1.75;;
28298;SDS011;15565;52.600;6.456;2022-08-21T02:09:16;3.85;;;1.83;;
28298;SDS011;15565;52.600;6.456;2022-08-21T02:12:05;3.50;;;2.10;;
28298;SDS011;15565;52.600;6.456;2022-08-21T02:14:53;6.60;;;2.22;;
28298;SDS011;15565;52.600;6.456;2022-08-21T02:17:40;3.00;;;2.03;;
28298;SDS011;15565;52.600;6.456;2022-08-21T02:20:29;3.22;;;2.47;;
28298;SDS011;15565;52.600;6.456;2022-08-21T02:23:17;5.30;;;2.28;;
28298;SDS011;15565;52.600;6.456;2022-08-21T02:26:11;4.05;;;2.22;;
28298;SDS011;15565;52.600;6.456;2022-08-21T02:29:00;2.23;;;1.87;;
28298;SDS011;15565;52.600;6.456;2022-08-21T02:31:47;3.58;;;2.15;;
28298;SDS011;15565;52.600;6.456;2022-08-21T02:34:34;4.13;;;1.80;;
28298;SDS011;15565;52.600;6.456;2022-08-21T02:37:21;3.25;;;2.20;;
28298;SDS011;15565;52.600;6.456;2022-08-21T02:40:08;5.22;;;2.60;;
28298;SDS011;15565;52.600;6.456;2022-08-21T02:42:56;3.40;;;1.70;;
28298;SDS011;15565;52.600;6.456;2022-08-21T02:45:45;3.05;;;1.80;;
28298;SDS011;15565;52.600;6.456;2022-08-21T02:48:32;5.65;;;2.03;;
28298;SDS011;15565;52.600;6.456;2022-08-21T02:51:19;4.30;;;2.28;;
28298;SDS011;15565;52.600;6.456;2022-08-21T02:54:07;5.50;;;2.25;;
28298;SDS011;15565;52.600;6.456;2022-08-21T02:56:54;5.18;;;1.73;;
28298;SDS011;15565;52.600;6.456;2022-08-21T02:59:41;3.15;;;1.63;;
28298;SDS011;15565;52.600;6.456;2022-08-21T03:02:29;4.43;;;1.73;;
28298;SDS011;15565;52.600;6.456;2022-08-21T03:05:17;2.65;;;1.83;;
28298;SDS011;15565;52.600;6.456;2022-08-21T03:08:05;4.03;;;1.90;;
28298;SDS011;15565;52.600;6.456;2022-08-21T03:10:54;8.90;;;1.95;;
28298;SDS011;15565;52.600;6.456;2022-08-21T03:13:41;2.70;;;1.45;;
28298;SDS011;15565;52.600;6.456;2022-08-21T03:16:28;2.83;;;1.80;;
28298;SDS011;15565;52.600;6.456;2022-08-21T03:19:20;2.30;;;2.00;;
28298;SDS011;15565;52.600;6.456;2022-08-21T03:22:07;2.92;;;1.80;;
28298;SDS011;15565;52.600;6.456;2022-08-21T03:24:54;2.30;;;1.35;;
28298;SDS011;15565;52.600;6.456;2022-08-21T03:27:41;5.75;;;2.95;;
28298;SDS011;15565;52.600;6.456;2022-08-21T03:30:28;2.70;;;2.03;;
28298;SDS011;15565;52.600;6.456;2022-08-21T03:33:15;4.00;;;1.77;;
28298;SDS011;15565;52.600;6.456;2022-08-21T03:36:09;3.78;;;1.50;;
28298;SDS011;15565;52.600;6.456;2022-08-21T03:38:56;3.30;;;1.70;;
28298;SDS011;15565;52.600;6.456;2022-08-21T03:41:42;2.67;;;1.60;;
28298;SDS011;15565;52.600;6.456;2022-08-21T03:44:30;2.40;;;2.20;;
28298;SDS011;15565;52.600;6.456;2022-08-21T03:47:17;5.40;;;1.88;;
28298;SDS011;15565;52.600;6.456;2022-08-21T03:50:04;3.90;;;1.77;;
28298;SDS011;15565;52.600;6.456;2022-08-21T03:52:54;4.87;;;1.70;;
28298;SDS011;15565;52.600;6.456;2022-08-21T03:55:41;3.72;;;2.00;;
28298;SDS011;15565;52.600;6.456;2022-08-21T03:58:28;2.10;;;1.80;;
28298;SDS011;15565;52.600;6.456;2022-08-21T04:01:15;2.05;;;1.88;;
28298;SDS011;15565;52.600;6.456;2022-08-21T04:04:02;3.72;;;3.05;;
28298;SDS011;15565;52.600;6.456;2022-08-21T04:06:49;2.47;;;1.75;;
28298;SDS011;15565;52.600;6.456;2022-08-21T04:09:38;5.15;;;1.92;;
28298;SDS011;15565;52.600;6.456;2022-08-21T04:12:25;7.22;;;2.17;;
28298;SDS011;15565;52.600;6.456;2022-08-21T04:15:11;3.33;;;1.98;;
28298;SDS011;15565;52.600;6.456;2022-08-21T04:17:59;5.57;;;1.40;;
28298;SDS011;15565;52.600;6.456;2022-08-21T04:20:46;4.63;;;2.08;;
28298;SDS011;15565;52.600;6.456;2022-08-21T04:23:34;4.95;;;1.90;;
28298;SDS011;15565;52.600;6.456;2022-08-21T04:26:23;1.75;;;1.55;;
28298;SDS011;15565;52.600;6.456;2022-08-21T04:29:10;1.83;;;1.73;;
28298;SDS011;15565;52.600;6.456;2022-08-21T04:31:56;7.97;;;2.22;;
28298;SDS011;15565;52.600;6.456;2022-08-21T04:34:44;3.65;;;1.88;;
28298;SDS011;15565;52.600;6.456;2022-08-21T04:37:30;6.18;;;2.00;;
28298;SDS011;15565;52.600;6.456;2022-08-21T04:40:26;2.17;;;1.70;;
28298;SDS011;15565;52.600;6.456;2022-08-21T04:43:14;3.53;;;1.55;;
28298;SDS011;15565;52.600;6.456;2022-08-21T04:46:01;5.35;;;1.90;;
28298;SDS011;15565;52.600;6.456;2022-08-21T04:48:48;3.85;;;2.63;;
28298;SDS011;15565;52.600;6.456;2022-08-21T04:51:35;2.85;;;1.85;;
28298;SDS011;15565;52.600;6.456;2022-08-21T04:54:23;1.48;;;1.23;;
28298;SDS011;15565;52.600;6.456;2022-08-21T04:57:10;4.95;;;1.52;;
28298;SDS011;15565;52.600;6.456;2022-08-21T04:59:59;3.07;;;1.70;;
28298;SDS011;15565;52.600;6.456;2022-08-21T05:02:47;4.30;;;1.80;;
28298;SDS011;15565;52.600;6.456;2022-08-21T05:05:39;2.15;;;1.48;;
28298;SDS011;15565;52.600;6.456;2022-08-21T05:08:26;2.10;;;1.35;;
28298;SDS011;15565;52.600;6.456;2022-08-21T05:11:13;2.83;;;1.60;;
28298;SDS011;15565;52.600;6.456;2022-08-21T05:14:00;3.25;;;1.60;;
28298;SDS011;15565;52.600;6.456;2022-08-21T05:16:49;2.08;;;1.60;;
28298;SDS011;15565;52.600;6.456;2022-08-21T05:19:36;2.30;;;1.98;;
28298;SDS011;15565;52.600;6.456;2022-08-21T05:22:23;2.85;;;1.80;;
28298;SDS011;15565;52.600;6.456;2022-08-21T05:25:10;2.70;;;1.58;;
28298;SDS011;15565;52.600;6.456;2022-08-21T05:27:57;4.25;;;1.88;;
28298;SDS011;15565;52.600;6.456;2022-08-21T05:30:44;4.22;;;1.38;;
28298;SDS011;15565;52.600;6.456;2022-08-21T05:33:32;2.30;;;1.88;;
28298;SDS011;15565;52.600;6.456;2022-08-21T05:36:21;3.47;;;1.65;;
28298;SDS011;15565;52.600;6.456;2022-08-21T05:39:08;3.75;;;1.80;;
28298;SDS011;15565;52.600;6.456;2022-08-21T05:41:55;2.80;;;1.85;;
28298;SDS011;15565;52.600;6.456;2022-08-21T05:44:41;4.78;;;2.35;;
28298;SDS011;15565;52.600;6.456;2022-08-21T05:47:29;3.78;;;1.60;;
28298;SDS011;15565;52.600;6.456;2022-08-21T05:50:17;3.10;;;1.48;;
28298;SDS011;15565;52.600;6.456;2022-08-21T05:53:03;2.22;;;1.42;;
28298;SDS011;15565;52.600;6.456;2022-08-21T05:55:51;3.55;;;1.48;;
28298;SDS011;15565;52.600;6.456;2022-08-21T05:58:38;2.07;;;1.70;;
28298;SDS011;15565;52.600;6.456;2022-08-21T06:01:25;4.18;;;1.90;;
28298;SDS011;15565;52.600;6.456;2022-08-21T06:04:15;2.60;;;1.55;;
28298;SDS011;15565;52.600;6.456;2022-08-21T06:07:03;7.13;;;1.90;;
28298;SDS011;15565;52.600;6.456;2022-08-21T06:09:50;4.30;;;1.70;;
28298;SDS011;15565;52.600;6.456;2022-08-21T06:12:37;4.32;;;2.17;;
28298;SDS011;15565;52.600;6.456;2022-08-21T06:15:26;4.38;;;1.60;;
28298;SDS011;15565;52.600;6.456;2022-08-21T06:18:19;2.42;;;1.60;;
28298;SDS011;15565;52.600;6.456;2022-08-21T06:21:06;3.57;;;1.40;;
28298;SDS011;15565;52.600;6.456;2022-08-21T06:23:54;2.78;;;1.52;;
28298;SDS011;15565;52.600;6.456;2022-08-21T06:26:41;2.67;;;1.65;;
28298;SDS011;15565;52.600;6.456;2022-08-21T06:29:28;3.65;;;2.20;;
28298;SDS011;15565;52.600;6.456;2022-08-21T06:32:28;5.28;;;1.83;;
28298;SDS011;15565;52.600;6.456;2022-08-21T06:35:15;4.60;;;1.43;;
28298;SDS011;15565;52.600;6.456;2022-08-21T06:38:02;4.17;;;1.63;;
28298;SDS011;15565;52.600;6.456;2022-08-21T06:40:53;4.82;;;1.77;;
28298;SDS011;15565;52.600;6.456;2022-08-21T06:43:41;3.67;;;1.50;;
28298;SDS011;15565;52.600;6.456;2022-08-21T06:46:29;1.90;;;1.58;;
28298;SDS011;15565;52.600;6.456;2022-08-21T06:49:16;5.57;;;1.85;;
28298;SDS011;15565;52.600;6.456;2022-08-21T06:52:08;6.38;;;2.28;;
28298;SDS011;15565;52.600;6.456;2022-08-21T06:54:55;1.95;;;1.55;;
28298;SDS011;15565;52.600;6.456;2022-08-21T06:57:43;1.63;;;1.47;;
28298;SDS011;15565;52.600;6.456;2022-08-21T07:00:38;1.50;;;1.40;;
28298;SDS011;15565;52.600;6.456;2022-08-21T07:03:26;3.38;;;1.58;;
28298;SDS011;15565;52.600;6.456;2022-08-21T07:06:14;2.47;;;1.20;;
28298;SDS011;15565;52.600;6.456;2022-08-21T07:09:02;3.00;;;1.45;;
28298;SDS011;15565;52.600;6.456;2022-08-21T07:11:49;3.72;;;1.70;;
28298;SDS011;15565;52.600;6.456;2022-08-21T07:14:38;3.88;;;1.55;;
28298;SDS011;15565;52.600;6.456;2022-08-21T07:17:25;6.80;;;2.08;;
28298;SDS011;15565;52.600;6.456;2022-08-21T07:20:12;4.95;;;1.30;;
28298;SDS011;15565;52.600;6.456;2022-08-21T07:22:59;5.57;;;1.63;;
28298;SDS011;15565;52.600;6.456;2022-08-21T07:25:47;2.97;;;1.25;;
28298;SDS011;15565;52.600;6.456;2022-08-21T07:28:34;4.45;;;1.27;;
28298;SDS011;15565;52.600;6.456;2022-08-21T07:31:23;2.35;;;1.23;;
28298;SDS011;15565;52.600;6.456;2022-08-21T07:34:09;3.13;;;1.23;;
28298;SDS011;15565;52.600;6.456;2022-08-21T07:36:56;3.97;;;1.25;;
28298;SDS011;15565;52.600;6.456;2022-08-21T07:39:50;2.58;;;1.10;;
28298;SDS011;15565;52.600;6.456;2022-08-21T07:42:39;6.85;;;2.20;;
28298;SDS011;15565;52.600;6.456;2022-08-21T07:45:26;2.28;;;1.33;;
28298;SDS011;15565;52.600;6.456;2022-08-21T07:48:14;6.85;;;2.30;;
28298;SDS011;15565;52.600;6.456;2022-08-21T07:51:02;5.20;;;1.27;;
28298;SDS011;15565;52.600;6.456;2022-08-21T07:53:52;4.68;;;1.70;;
28298;SDS011;15565;52.600;6.456;2022-08-21T07:56:39;7.07;;;1.73;;
28298;SDS011;15565;52.600;6.456;2022-08-21T07:59:27;6.95;;;1.45;;
28298;SDS011;15565;52.600;6.456;2022-08-21T08:02:21;3.90;;;1.40;;
28298;SDS011;15565;52.600;6.456;2022-08-21T08:05:09;8.63;;;1.58;;
28298;SDS011;15565;52.600;6.456;2022-08-21T08:07:57;5.57;;;1.77;;
28298;SDS011;15565;52.600;6.456;2022-08-21T08:10:44;4.47;;;1.17;;
28298;SDS011;15565;52.600;6.456;2022-08-21T08:13:31;4.00;;;1.65;;
28298;SDS011;15565;52.600;6.456;2022-08-21T08:16:18;1.98;;;1.45;;
28298;SDS011;15565;52.600;6.456;2022-08-21T08:19:05;3.00;;;1.40;;
28298;SDS011;15565;52.600;6.456;2022-08-21T08:21:53;4.03;;;1.02;;
28298;SDS011;15565;52.600;6.456;2022-08-21T08:24:39;3.03;;;1.17;;
28298;SDS011;15565;52.600;6.456;2022-08-21T08:27:27;3.88;;;1.25;;
28298;SDS011;15565;52.600;6.456;2022-08-21T08:30:14;3.45;;;1.17;;
28298;SDS011;15565;52.600;6.456;2022-08-21T08:33:03;2.58;;;1.23;;
28298;SDS011;15565;52.600;6.456;2022-08-21T08:35:50;1.60;;;0.95;;
28298;SDS011;15565;52.600;6.456;2022-08-21T08:38:38;4.10;;;1.17;;
28298;SDS011;15565;52.600;6.456;2022-08-21T08:41:28;5.30;;;1.33;;
28298;SDS011;15565;52.600;6.456;2022-08-21T08:44:15;3.92;;;1.60;;
28298;SDS011;15565;52.600;6.456;2022-08-21T08:47:02;6.43;;;1.40;;
28298;SDS011;15565;52.600;6.456;2022-08-21T08:49:53;4.95;;;1.60;;
28298;SDS011;15565;52.600;6.456;2022-08-21T08:52:42;4.00;;;0.90;;
28298;SDS011;15565;52.600;6.456;2022-08-21T08:55:33;3.22;;;1.15;;
28298;SDS011;15565;52.600;6.456;2022-08-21T08:58:22;6.57;;;1.30;;
28298;SDS011;15565;52.600;6.456;2022-08-21T09:01:11;2.67;;;1.17;;
28298;SDS011;15565;52.600;6.456;2022-08-21T09:04:00;1.35;;;0.88;;
28298;SDS011;15565;52.600;6.456;2022-08-21T09:06:52;3.30;;;0.95;;
28298;SDS011;15565;52.600;6.456;2022-08-21T09:09:46;1.20;;;0.77;;
28298;SDS011;15565;52.600;6.456;2022-08-21T09:12:38;3.78;;;0.95;;
28298;SDS011;15565;52.600;6.456;2022-08-21T09:15:28;1.60;;;0.70;;
28298;SDS011;15565;52.600;6.456;2022-08-21T09:18:20;4.20;;;0.95;;
28298;SDS011;15565;52.600;6.456;2022-08-21T09:21:15;4.15;;;1.10;;
28298;SDS011;15565;52.600;6.456;2022-08-21T09:24:07;2.53;;;0.70;;
28298;SDS011;15565;52.600;6.456;2022-08-21T09:27:02;3.15;;;1.35;;
28298;SDS011;15565;52.600;6.456;2022-08-21T09:29:53;7.85;;;0.88;;
28298;SDS011;15565;52.600;6.456;2022-08-21T09:32:42;6.80;;;0.90;;
28298;SDS011;15565;52.600;6.456;2022-08-21T09:35:29;1.75;;;0.70;;
28298;SDS011;15565;52.600;6.456;2022-08-21T09:38:24;6.43;;;1.17;;
28298;SDS011;15565;52.600;6.456;2022-08-21T09:41:11;0.93;;;0.50;;
28298;SDS011;15565;52.600;6.456;2022-08-21T09:43:58;5.95;;;0.93;;
28298;SDS011;15565;52.600;6.456;2022-08-21T09:46:50;2.40;;;0.80;;
28298;SDS011;15565;52.600;6.456;2022-08-21T09:49:38;3.05;;;0.75;;
28298;SDS011;15565;52.600;6.456;2022-08-21T09:52:26;1.65;;;0.47;;
28298;SDS011;15565;52.600;6.456;2022-08-21T09:55:15;2.50;;;0.70;;
28298;SDS011;15565;52.600;6.456;2022-08-21T09:58:29;1.90;;;0.93;;
28298;SDS011;15565;52.600;6.456;2022-08-21T10:01:16;4.00;;;0.65;;
28298;SDS011;15565;52.600;6.456;2022-08-21T10:04:08;2.05;;;0.60;;
28298;SDS011;15565;52.600;6.456;2022-08-21T10:07:05;2.20;;;0.90;;
28298;SDS011;15565;52.600;6.456;2022-08-21T10:09:59;4.93;;;0.82;;
28298;SDS011;15565;52.600;6.456;2022-08-21T10:12:48;3.47;;;0.73;;
28298;SDS011;15565;52.600;6.456;2022-08-21T10:15:39;3.03;;;0.35;;
28298;SDS011;15565;52.600;6.456;2022-08-21T10:18:30;3.72;;;1.23;;
28298;SDS011;15565;52.600;6.456;2022-08-21T10:21:23;5.65;;;1.02;;
28298;SDS011;15565;52.600;6.456;2022-08-21T10:24:12;2.33;;;0.77;;
28298;SDS011;15565;52.600;6.456;2022-08-21T10:27:15;4.97;;;0.65;;
28298;SDS011;15565;52.600;6.456;2022-08-21T10:30:06;4.43;;;0.73;;
28298;SDS011;15565;52.600;6.456;2022-08-21T10:33:02;5.47;;;0.93;;
28298;SDS011;15565;52.600;6.456;2022-08-21T10:35:53;4.53;;;0.70;;
28298;SDS011;15565;52.600;6.456;2022-08-21T10:38:55;1.60;;;0.40;;
28298;SDS011;15565;52.600;6.456;2022-08-21T10:42:08;2.70;;;1.10;;
28298;SDS011;15565;52.600;6.456;2022-08-21T10:45:00;3.05;;;0.70;;
28298;SDS011;15565;52.600;6.456;2022-08-21T10:47:53;2.53;;;0.75;;
28298;SDS011;15565;52.600;6.456;2022-08-21T10:50:44;2.65;;;0.50;;
28298;SDS011;15565;52.600;6.456;2022-08-21T10:53:36;4.65;;;0.88;;
28298;SDS011;15565;52.600;6.456;2022-08-21T10:56:30;0.80;;;0.80;;
28298;SDS011;15565;52.600;6.456;2022-08-21T10:59:22;2.08;;;0.88;;
28298;SDS011;15565;52.600;6.456;2022-08-21T11:02:13;2.58;;;0.50;;
28298;SDS011;15565;52.600;6.456;2022-08-21T11:05:01;2.00;;;0.80;;
28298;SDS011;15565;52.600;6.456;2022-08-21T11:07:50;2.28;;;0.98;;
28298;SDS011;15565;52.600;6.456;2022-08-21T11:10:40;2.17;;;1.10;;
28298;SDS011;15565;52.600;6.456;2022-08-21T11:13:45;3.15;;;0.90;;
28298;SDS011;15565;52.600;6.456;2022-08-21T11:16:36;1.88;;;0.50;;
28298;SDS011;15565;52.600;6.456;2022-08-21T11:19:24;2.00;;;0.65;;
28298;SDS011;15565;52.600;6.456;2022-08-21T11:22:13;3.22;;;0.47;;
28298;SDS011;15565;52.600;6.456;2022-08-21T11:25:05;6.20;;;0.47;;
28298;SDS011;15565;52.600;6.456;2022-08-21T11:27:54;1.85;;;0.75;;
28298;SDS011;15565;52.600;6.456;2022-08-21T11:30:46;4.10;;;0.90;;
28298;SDS011;15565;52.600;6.456;2022-08-21T11:33:39;3.60;;;0.90;;
28298;SDS011;15565;52.600;6.456;2022-08-21T11:36:30;1.75;;;0.60;;
28298;SDS011;15565;52.600;6.456;2022-08-21T11:39:22;4.43;;;1.00;;
28298;SDS011;15565;52.600;6.456;2022-08-21T11:42:13;2.80;;;0.70;;
28298;SDS011;15565;52.600;6.456;2022-08-21T11:45:08;5.23;;;0.90;;
28298;SDS011;15565;52.600;6.456;2022-08-21T11:48:00;4.18;;;0.88;;
28298;SDS011;15565;52.600;6.456;2022-08-21T11:50:50;1.80;;;0.77;;
28298;SDS011;15565;52.600;6.456;2022-08-21T11:53:39;1.90;;;0.68;;
28298;SDS011;15565;52.600;6.456;2022-08-21T11:56:28;4.55;;;1.20;;
28298;SDS011;15565;52.600;6.456;2022-08-21T11:59:18;2.75;;;0.80;;
28298;SDS011;15565;52.600;6.456;2022-08-21T12:02:09;2.65;;;0.80;;
28298;SDS011;15565;52.600;6.456;2022-08-21T12:05:02;1.20;;;0.60;;
28298;SDS011;15565;52.600;6.456;2022-08-21T12:07:59;3.75;;;0.60;;
28298;SDS011;15565;52.600;6.456;2022-08-21T12:10:58;6.10;;;0.63;;
28298;SDS011;15565;52.600;6.456;2022-08-21T12:13:52;5.20;;;0.70;;
28298;SDS011;15565;52.600;6.456;2022-08-21T12:16:40;2.03;;;0.73;;
28298;SDS011;15565;52.600;6.456;2022-08-21T12:19:28;0.80;;;0.50;;
28298;SDS011;15565;52.600;6.456;2022-08-21T12:22:16;1.55;;;0.60;;
28298;SDS011;15565;52.600;6.456;2022-08-21T12:25:05;1.20;;;0.70;;
28298;SDS011;15565;52.600;6.456;2022-08-21T12:27:53;3.10;;;0.90;;
28298;SDS011;15565;52.600;6.456;2022-08-21T12:30:47;2.58;;;0.98;;
28298;SDS011;15565;52.600;6.456;2022-08-21T12:33:41;3.60;;;1.00;;
28298;SDS011;15565;52.600;6.456;2022-08-21T12:36:40;2.50;;;1.40;;
28298;SDS011;15565;52.600;6.456;2022-08-21T12:39:31;2.97;;;0.90;;
28298;SDS011;15565;52.600;6.456;2022-08-21T12:42:19;4.60;;;1.13;;
28298;SDS011;15565;52.600;6.456;2022-08-21T12:45:11;1.20;;;0.70;;
28298;SDS011;15565;52.600;6.456;2022-08-21T12:48:02;2.85;;;1.13;;
28298;SDS011;15565;52.600;6.456;2022-08-21T12:50:51;4.75;;;1.30;;
28298;SDS011;15565;52.600;6.456;2022-08-21T12:53:40;1.60;;;0.93;;
28298;SDS011;15565;52.600;6.456;2022-08-21T12:56:31;5.05;;;1.10;;
28298;SDS011;15565;52.600;6.456;2022-08-21T12:59:18;2.30;;;0.77;;
28298;SDS011;15565;52.600;6.456;2022-08-21T13:02:22;2.63;;;1.00;;
28298;SDS011;15565;52.600;6.456;2022-08-21T13:05:12;1.25;;;0.73;;
28298;SDS011;15565;52.600;6.456;2022-08-21T13:08:02;2.43;;;0.47;;
28298;SDS011;15565;52.600;6.456;2022-08-21T13:10:55;3.58;;;0.95;;
28298;SDS011;15565;52.600;6.456;2022-08-21T13:13:47;4.55;;;1.30;;
28298;SDS011;15565;52.600;6.456;2022-08-21T13:16:36;1.58;;;0.93;;
28298;SDS011;15565;52.600;6.456;2022-08-21T13:19:24;2.95;;;1.10;;
28298;SDS011;15565;52.600;6.456;2022-08-21T13:22:12;2.55;;;0.63;;
28298;SDS011;15565;52.600;6.456;2022-08-21T13:25:20;2.60;;;1.20;;
28298;SDS011;15565;52.600;6.456;2022-08-21T13:28:08;4.95;;;1.20;;
28298;SDS011;15565;52.600;6.456;2022-08-21T13:30:57;3.85;;;0.65;;
28298;SDS011;15565;52.600;6.456;2022-08-21T13:33:46;2.85;;;0.90;;
28298;SDS011;15565;52.600;6.456;2022-08-21T13:36:35;4.78;;;1.08;;
28298;SDS011;15565;52.600;6.456;2022-08-21T13:39:22;4.17;;;1.27;;
28298;SDS011;15565;52.600;6.456;2022-08-21T13:42:11;0.40;;;0.40;;
28298;SDS011;15565;52.600;6.456;2022-08-21T13:44:58;4.38;;;1.15;;
28298;SDS011;15565;52.600;6.456;2022-08-21T13:47:47;4.40;;;1.00;;
28298;SDS011;15565;52.600;6.456;2022-08-21T13:50:35;2.05;;;0.80;;
28298;SDS011;15565;52.600;6.456;2022-08-21T13:53:23;3.35;;;0.80;;
28298;SDS011;15565;52.600;6.456;2022-08-21T13:56:21;1.10;;;0.70;;
28298;SDS011;15565;52.600;6.456;2022-08-21T13:59:09;4.00;;;0.85;;
28298;SDS011;15565;52.600;6.456;2022-08-21T14:01:57;3.88;;;1.45;;
28298;SDS011;15565;52.600;6.456;2022-08-21T14:04:50;3.05;;;0.80;;
28298;SDS011;15565;52.600;6.456;2022-08-21T14:07:38;4.10;;;1.25;;
28298;SDS011;15565;52.600;6.456;2022-08-21T14:10:27;3.00;;;1.13;;
28298;SDS011;15565;52.600;6.456;2022-08-21T14:13:24;4.75;;;1.23;;
28298;SDS011;15565;52.600;6.456;2022-08-21T14:16:15;7.20;;;1.45;;
28298;SDS011;15565;52.600;6.456;2022-08-21T14:19:10;4.03;;;0.77;;
28298;SDS011;15565;52.600;6.456;2022-08-21T14:21:58;3.92;;;1.02;;
28298;SDS011;15565;52.600;6.456;2022-08-21T14:24:45;4.90;;;1.75;;
28298;SDS011;15565;52.600;6.456;2022-08-21T14:27:40;6.13;;;1.20;;
28298;SDS011;15565;52.600;6.456;2022-08-21T14:30:29;3.63;;;1.30;;
28298;SDS011;15565;52.600;6.456;2022-08-21T14:33:20;4.80;;;1.35;;
28298;SDS011;15565;52.600;6.456;2022-08-21T14:36:08;2.70;;;1.17;;
28298;SDS011;15565;52.600;6.456;2022-08-21T14:38:57;2.05;;;1.42;;
28298;SDS011;15565;52.600;6.456;2022-08-21T14:41:46;1.75;;;1.20;;
28298;SDS011;15565;52.600;6.456;2022-08-21T14:44:33;1.30;;;0.80;;
28298;SDS011;15565;52.600;6.456;2022-08-21T14:47:21;3.22;;;1.00;;
28298;SDS011;15565;52.600;6.456;2022-08-21T14:50:08;2.90;;;1.20;;
28298;SDS011;15565;52.600;6.456;2022-08-21T14:52:55;2.60;;;1.20;;
28298;SDS011;15565;52.600;6.456;2022-08-21T14:55:44;4.57;;;1.63;;
28298;SDS011;15565;52.600;6.456;2022-08-21T14:58:45;2.88;;;1.02;;
28298;SDS011;15565;52.600;6.456;2022-08-21T15:01:35;3.53;;;1.38;;
28298;SDS011;15565;52.600;6.456;2022-08-21T15:04:22;2.63;;;0.90;;
28298;SDS011;15565;52.600;6.456;2022-08-21T15:07:09;1.85;;;1.17;;
28298;SDS011;15565;52.600;6.456;2022-08-21T15:09:56;4.18;;;1.05;;
28298;SDS011;15565;52.600;6.456;2022-08-21T15:12:44;5.10;;;1.20;;
28298;SDS011;15565;52.600;6.456;2022-08-21T15:15:32;6.43;;;1.85;;
28298;SDS011;15565;52.600;6.456;2022-08-21T15:18:20;3.77;;;1.20;;
28298;SDS011;15565;52.600;6.456;2022-08-21T15:21:07;7.50;;;2.00;;
28298;SDS011;15565;52.600;6.456;2022-08-21T15:23:54;4.60;;;1.42;;
28298;SDS011;15565;52.600;6.456;2022-08-21T15:26:41;4.65;;;1.20;;
28298;SDS011;15565;52.600;6.456;2022-08-21T15:29:30;7.72;;;1.50;;
28298;SDS011;15565;52.600;6.456;2022-08-21T15:32:19;4.80;;;2.10;;
28298;SDS011;15565;52.600;6.456;2022-08-21T15:35:07;8.50;;;1.50;;
28298;SDS011;15565;52.600;6.456;2022-08-21T15:37:54;5.37;;;1.30;;
28298;SDS011;15565;52.600;6.456;2022-08-21T15:40:41;3.22;;;1.10;;
28298;SDS011;15565;52.600;6.456;2022-08-21T15:43:37;3.60;;;1.30;;
28298;SDS011;15565;52.600;6.456;2022-08-21T15:46:26;1.23;;;0.97;;
28298;SDS011;15565;52.600;6.456;2022-08-21T15:49:13;1.08;;;0.65;;
28298;SDS011;15565;52.600;6.456;2022-08-21T15:52:00;0.77;;;0.45;;
28298;SDS011;15565;52.600;6.456;2022-08-21T15:54:46;4.40;;;1.70;;
28298;SDS011;15565;52.600;6.456;2022-08-21T15:57:33;4.40;;;0.88;;
28298;SDS011;15565;52.600;6.456;2022-08-21T16:00:21;3.97;;;1.00;;
28298;SDS011;15565;52.600;6.456;2022-08-21T16:03:10;2.03;;;1.15;;
28298;SDS011;15565;52.600;6.456;2022-08-21T16:05:59;2.42;;;1.70;;
28298;SDS011;15565;52.600;6.456;2022-08-21T16:08:46;3.20;;;1.30;;
28298;SDS011;15565;52.600;6.456;2022-08-21T16:11:33;5.75;;;1.50;;
28298;SDS011;15565;52.600;6.456;2022-08-21T16:14:19;1.55;;;0.95;;
28298;SDS011;15565;52.600;6.456;2022-08-21T16:17:07;4.77;;;1.27;;
28298;SDS011;15565;52.600;6.456;2022-08-21T16:19:55;6.05;;;2.38;;
28298;SDS011;15565;52.600;6.456;2022-08-21T16:22:42;2.22;;;0.60;;
28298;SDS011;15565;52.600;6.456;2022-08-21T16:25:29;1.80;;;1.20;;
28298;SDS011;15565;52.600;6.456;2022-08-21T16:28:19;2.95;;;1.13;;
28298;SDS011;15565;52.600;6.456;2022-08-21T16:31:07;4.88;;;1.15;;
28298;SDS011;15565;52.600;6.456;2022-08-21T16:33:59;3.72;;;1.85;;
28298;SDS011;15565;52.600;6.456;2022-08-21T16:36:48;3.40;;;1.10;;
28298;SDS011;15565;52.600;6.456;2022-08-21T16:39:35;1.52;;;0.60;;
28298;SDS011;15565;52.600;6.456;2022-08-21T16:42:23;4.30;;;1.50;;
28298;SDS011;15565;52.600;6.456;2022-08-21T16:45:11;2.13;;;0.88;;
28298;SDS011;15565;52.600;6.456;2022-08-21T16:47:59;1.10;;;0.70;;
28298;SDS011;15565;52.600;6.456;2022-08-21T16:50:48;1.10;;;0.63;;
28298;SDS011;15565;52.600;6.456;2022-08-21T16:53:36;2.28;;;0.50;;
28298;SDS011;15565;52.600;6.456;2022-08-21T16:56:23;4.05;;;1.35;;
28298;SDS011;15565;52.600;6.456;2022-08-21T16:59:10;3.85;;;0.80;;